27. September 2022

Uhrzeit Code Wetter Temp. Sichtweite Wolkendecke Wind METAR/SPECI
04:00
V
9 °C 10 km+ 3.100 ft 290° 290° 7 kt METAR LFQQ 270200Z AUTO 29007KT 9999 FEW017/// BKN031/// BKN044/// //////CB 09/08 Q1001 TEMPO 30015G25KT 3000 SHRA BKN013 BKN020CB
03:30
M
10 °C 10 km+ 2.500 ft 250° 250° 3 kt METAR LFQQ 270130Z AUTO 25003KT 9999 BKN025/// BKN033/// OVC039/// //////TCU 10/09 Q1001 TEMPO 30015G25KT 3000 SHRA BKN013 BKN020CB
03:00
V
10 °C 10 km+ 4.300 ft 300° 300° 5 kt METAR LFQQ 270100Z AUTO 30005KT 9999 FEW020/// SCT030/// BKN043/// ///TCU 10/08 Q1001 TEMPO 30015G25KT 3000 SHRA BKN013 BKN020CB
02:30
M
9 °C 7 km 3.600 ft 290° 290° 8 kt METAR LFQQ 270030Z AUTO 29008KT 250V330 7000 RA FEW019/// SCT028/// BKN036/// //////CB 09/08 Q1001 TEMPO 30015G25KT 3000 SHRA BKN013 BKN020CB
02:00
I
10 °C 4,6 km 4.500 ft 250° 250° 11 kt METAR LFQQ 270000Z AUTO 25011KT 9999 4600 -RA FEW025/// SCT035/// BKN045/// //////CB 10/08 Q1001 TEMPO 30015G25KT 3000 SHRA BKN013 BKN020CB
01:30
V
10 °C 10 km+ 3.700 ft 260° 260° 9 kt METAR LFQQ 262330Z AUTO 26009KT 9999 FEW031/// BKN037/// BKN048/// //////TCU 10/08 Q1001 TEMPO 30015G25KT 3000 SHRA BKN013 BKN020CB
01:00
V
10 °C 10 km+ 7.000 ft 260° 260° 10 kt METAR LFQQ 262300Z AUTO 26010KT 9999 FEW039/// SCT050/// BKN070/// ///TCU 10/08 Q1001 TEMPO 30015G25KT 3000 SHRA BKN013 BKN020CB
00:30
V
10 °C 10 km+ - 260° 260° 8 kt METAR LFQQ 262230Z AUTO 26008KT CAVOK 10/08 Q1001 TEMPO 30015G25KT 3000 SHRA BKN013 BKN020CB
00:00
V
10 °C 10 km+ 5.800 ft 290° 290° 8 kt METAR LFQQ 262200Z AUTO 29008KT 9999 FEW047 BKN058 BKN100 10/08 Q1001 TEMPO 30015G25KT 3000 SHRA BKN013 BKN020CB

26. September 2022

Uhrzeit Code Wetter Temp. Sichtweite Wolkendecke Wind METAR/SPECI
23:30
V
10 °C 10 km+ 4.900 ft 290° 290° 12 kt METAR LFQQ 262130Z AUTO 29012KT 9999 FEW014/// SCT036/// OVC049/// ///TCU 10/09 Q1001 TEMPO 30015G25KT 3000 SHRA BKN013 BKN020CB
23:00
V
10 °C 10 km+ 4.400 ft 290° 290° 9 kt METAR LFQQ 262100Z AUTO 29009KT 9999 FEW018/// SCT032/// BKN044/// //////TCU 10/09 Q1001 TEMPO 30015G25KT 3000 SHRA BKN013 BKN020CB
22:30
V
10 °C 10 km+ 4.700 ft 270° 270° 11 kt METAR LFQQ 262030Z AUTO 27011KT 9999 RA FEW022/// BKN047/// OVC056/// //////TCU 10/10 Q1001 TEMPO 30015G25KT 3000 SHRA BKN013 BKN020CB
22:00
I
11 °C 3 km 3.400 ft 260° 260° 9 kt METAR LFQQ 262000Z AUTO 26009KT 9999 3000 +RA FEW025/// BKN034/// BKN040/// //////TCU 11/10 Q1001 TEMPO 30015G25KT 3000 SHRA BKN013 BKN020CB
21:30
M
11 °C 7 km 3.700 ft 280° 280° 9 kt METAR LFQQ 261930Z AUTO 28009KT 7000 RA FEW015/// SCT028/// BKN037/// //////TCU 11/10 Q1001 TEMPO 30015G25KT 3000 SHRA BKN013 BKN020CB
21:00
V
11 °C 10 km+ 5.600 ft 270° 270° 8 kt METAR LFQQ 261900Z AUTO 27008KT 9999 -RADZ FEW023/// BKN056/// OVC072/// //////CB 11/10 Q1000 TEMPO 30015G25KT 3000 SHRA BKN013 BKN020CB
20:30
V
11 °C 10 km+ 4.800 ft 270° 270° 8 kt METAR LFQQ 261830Z AUTO 27008KT 9999 FEW027/// BKN048/// OVC058/// //////TCU 11/10 Q1000 TEMPO 30015G25KT 3000 SHRA BKN013 BKN020CB
20:00
V
11 °C 9 km 4.200 ft 280° 280° 8 kt METAR LFQQ 261800Z AUTO 28008KT 9000 -RA FEW027/// SCT034/// BKN042/// //////TCU 11/10 Q1000 TEMPO 30015G25KT 3000 SHRA BKN013 BKN020CB
19:30
V
12 °C 10 km+ - 290° 290° 6 kt METAR LFQQ 261730Z AUTO 29006KT 9999 ///CB 12/09 Q0999 TEMPO 30015G25KT 3000 SHRA BKN013 BKN020CB
19:00
V
12 °C 10 km+ 5.800 ft 300° 300° 8 kt METAR LFQQ 261700Z AUTO 30008KT 9999 FEW039 BKN058 OVC086 12/09 Q0999 TEMPO 30015G25KT 3000 SHRA BKN013 BKN020CB
18:30
V
13 °C 10 km+ 9.800 ft 290° 290° 7 kt METAR LFQQ 261630Z AUTO 29007KT 260V330 9999 -RA FEW025 SCT036 BKN098 13/10 Q0999 TEMPO 30015G25KT 3000 SHRA BKN013 BKN020CB
18:00
V
13 °C 10 km+ 9.000 ft 300° 300° 8 kt METAR LFQQ 261600Z AUTO 30008KT 9999 FEW033/// SCT062/// BKN090/// ///CB 13/09 Q0999 TEMPO 30015G25KT 3000 SHRA BKN013 BKN020CB
17:30
V
13 °C 10 km+ 4.200 ft 320° 320° 11 kt METAR LFQQ 261530Z AUTO 32011KT 9999 -RA FEW022/// SCT032/// BKN042/// //////CB 13/10 Q0999 TEMPO 30015G25KT 3000 SHRA BKN013 BKN020CB
17:00
M
14 °C 10 km+ 2.300 ft 300° 300° 9 kt METAR LFQQ 261500Z AUTO 30009KT 9999 SCT014/// BKN023/// BKN068/// //////TCU 14/11 Q0999 TEMPO 30015G25KT 3000 SHRA BKN013 BKN020CB
16:30
M
14 °C 10 km+ 1.200 ft 250° 250° 7 kt METAR LFQQ 261430Z AUTO 25007KT 230V300 9999 -DZ BKN012/// BKN018/// OVC060/// //////TCU 14/13 Q0998 TEMPO 30015G25KT 3000 SHRA BKN013 BKN020CB
16:00
M
13 °C 10 km+ 1.400 ft 240° 240° 6 kt METAR LFQQ 261400Z AUTO 24006KT 9999 SCT007/// BKN014/// BKN025/// //////TCU 13/12 Q0999 TEMPO 30015G25KT 3000 SHRA BKN013 BKN020CB
15:30
I
13 °C 10 km+ 600 ft 240° 240° 6 kt METAR LFQQ 261330Z AUTO 24006KT 9999 BKN006 BKN023 BKN029 13/12 Q0999 TEMPO 30015G25KT 3000 SHRA BKN013 BKN020CB
15:00
I
12 °C 10 km+ 600 ft 260° 260° 8 kt METAR LFQQ 261300Z AUTO 26008KT 9999 -RA OVC006/// //////TCU 12/12 Q0998 BECMG 20015KT RA SCT008 OVC013
14:30
I
12 °C 3,6 km 700 ft 230° 230° 10 kt METAR LFQQ 261230Z AUTO 23010KT 3600 -RA BR OVC007/// ///TCU 12/12 Q0999 BECMG 9999 RA SCT008 OVC013
14:00
I
12 °C 3,5 km 900 ft 220° 220° 11 kt METAR LFQQ 261200Z AUTO 22011KT 9999 3500 -RA OVC009 12/11 Q0999 TEMPO 20017G30KT 3000 RA OVC005 SCT030CB
13:30
I
12 °C 10 km+ 900 ft 190° 190° 11 kt METAR LFQQ 261130Z AUTO 19011KT 9999 BKN009/// BKN014/// BKN020/// //////TCU 12/11 Q0999 TEMPO 20017G30KT 3000 RADZ OVC005 SCT030CB
13:00
M
12 °C 6 km 1.300 ft 210° 210° 10 kt METAR LFQQ 261100Z AUTO 21010KT 6000 RA BKN013/// BKN031/// BKN043/// ///CB 12/11 Q1000 TEMPO 20017G30KT 3000 RADZ OVC005 SCT030CB
12:30
I
12 °C 4 km 1.600 ft 220° 220° 10 kt METAR LFQQ 261030Z AUTO 22010KT 4000 RA BR BKN016/// BKN023/// OVC028/// ///CB 12/10 Q1001 TEMPO 20017G30KT OVC005 SCT030CB
12:00
M
13 °C 10 km+ 1.800 ft 190° 190° 17 kt METAR LFQQ 261000Z AUTO 19017KT 9999 BKN018/// OVC035/// //////TCU 13/10 Q1000 TEMPO 20017G30KT 3000 RADZ OVC005 SCT030CB
11:30
M
12 °C 10 km+ 1.800 ft 190° 190° 17 kt METAR LFQQ 260930Z AUTO 19017KT 9999 BKN018/// BKN028/// BKN039/// //////TCU 12/10 Q1000 TEMPO 20017G30KT 3000 RADZ OVC005 SCT030CB
11:00
M
12 °C 10 km+ 2.000 ft 200° 200° 16 kt METAR LFQQ 260900Z AUTO 20016KT 9999 BKN020 BKN034 OVC049 12/10 Q1001 TEMPO 20017G30KT 3000 RADZ OVC005 SCT030CB
10:30
M
12 °C 10 km+ 2.100 ft 200° 200° 18 kt METAR LFQQ 260830Z AUTO 20018KT 9999 -RADZ BKN021 BKN030 BKN072 12/10 Q1001 TEMPO 20017G30KT 3000 RADZ OVC005 SCT030CB
10:00
V
12 °C 10 km+ 4.200 ft 200° 200° 15 kt METAR LFQQ 260800Z AUTO 20015KT 9999 -DZ FEW023/// SCT030/// BKN042/// //////TCU 12/10 Q1002 TEMPO 20017G30KT 3000 RADZ OVC005 SCT030CB
09:30
V
13 °C 10 km+ 4.700 ft 200° 200° 16 kt METAR LFQQ 260730Z AUTO 20016KT 9999 BKN047 BKN054 BKN090 13/09 Q1002 TEMPO 20017G30KT 3000 RADZ OVC005 SCT030CB
09:00
V
12 °C 10 km+ 4.600 ft 200° 200° 12 kt METAR LFQQ 260700Z AUTO 20012KT 9999 BKN046 BKN054 OVC094 12/09 Q1003 BECMG RA OVC013
08:30
V
12 °C 10 km+ - 200° 200° 10 kt METAR LFQQ 260630Z AUTO 20010KT CAVOK 12/09 Q1004 BECMG RA OVC013
08:00
V
12 °C 10 km+ - 200° 200° 11 kt METAR LFQQ 260600Z AUTO 20011KT CAVOK 12/09 Q1004 BECMG RA OVC013
07:30
V
12 °C 10 km+ 5.600 ft 210° 210° 12 kt METAR LFQQ 260530Z AUTO 21012KT 9999 FEW027 SCT046 BKN056 12/09 Q1005 BECMG RA OVC013
07:00
V
12 °C 10 km+ 3.500 ft 200° 200° 12 kt METAR LFQQ 260500Z AUTO 20012KT 9999 SCT027 BKN035 BKN052 12/08 Q1005 BECMG OVC013
06:30
V
12 °C 10 km+ 3.000 ft 200° 200° 12 kt METAR LFQQ 260430Z AUTO 20012KT 9999 SCT024 BKN030 BKN037 12/08 Q1006 BECMG OVC013
06:00
V
11 °C 10 km+ 3.800 ft 200° 200° 12 kt METAR LFQQ 260400Z AUTO 20012KT 9999 FEW031 BKN038 BKN044 11/08 Q1007 NOSIG
05:30
V
11 °C 10 km+ 11.000 ft 190° 190° 10 kt METAR LFQQ 260330Z AUTO 19010KT 9999 FEW045 OVC110 11/08 Q1007 NOSIG
05:00
V
11 °C 10 km+ 4.400 ft 190° 190° 10 kt METAR LFQQ 260300Z AUTO 19010KT 9999 SCT038 BKN044 BKN054 11/08 Q1008 NOSIG
04:30
V
11 °C 10 km+ 4.600 ft 190° 190° 8 kt METAR LFQQ 260230Z AUTO 19008KT 9999 BKN046 BKN052 BKN068 11/09 Q1009 NOSIG
04:00
V
11 °C 10 km+ - 190° 190° 8 kt METAR LFQQ 260200Z AUTO 19008KT CAVOK 11/09 Q1009 NOSIG
03:30
V
11 °C 10 km+ - 190° 190° 7 kt METAR LFQQ 260130Z AUTO 19007KT 9999 -RA NSC 11/09 Q1010 NOSIG
03:00
V
11 °C 10 km+ 10.000 ft 200° 200° 7 kt METAR LFQQ 260100Z AUTO 20007KT 9999 FEW046 SCT058 OVC100 11/09 Q1010 NOSIG
02:30
V
11 °C 10 km+ 4.600 ft 220° 220° 7 kt METAR LFQQ 260030Z AUTO 22007KT 9999 BKN046 OVC058 11/09 Q1011 NOSIG
02:00
V
11 °C 10 km+ 5.800 ft 210° 210° 6 kt METAR LFQQ 260000Z AUTO 21006KT 9999 FEW047 BKN058 OVC120 11/09 Q1011 NOSIG
01:30
V
11 °C 10 km+ - 200° 200° 4 kt METAR LFQQ 252330Z AUTO 20004KT CAVOK 11/09 Q1012 NOSIG
01:00
V
11 °C 10 km+ 5.400 ft 220° 220° 4 kt METAR LFQQ 252300Z AUTO 22004KT 9999 SCT043 OVC054 11/09 Q1013 NOSIG
00:30
V
10 °C 10 km+ - 220° 220° 5 kt METAR LFQQ 252230Z AUTO 22005KT CAVOK 10/09 Q1013 NOSIG
00:00
V
10 °C 10 km+ - 240° 240° 4 kt METAR LFQQ 252200Z AUTO 24004KT CAVOK 10/09 Q1013 NOSIG

25. September 2022

Uhrzeit Code Wetter Temp. Sichtweite Wolkendecke Wind METAR/SPECI
23:30
V
10 °C 10 km+ - 230° 230° 4 kt METAR LFQQ 252130Z AUTO 23004KT CAVOK 10/09 Q1013 NOSIG
23:00
V
11 °C 10 km+ - 220° 220° 5 kt METAR LFQQ 252100Z AUTO 22005KT CAVOK 11/10 Q1014 NOSIG
22:30
V
11 °C 10 km+ - 240° 240° 5 kt METAR LFQQ 252030Z AUTO 24005KT CAVOK 11/10 Q1014 NOSIG
22:00
V
12 °C 10 km+ - 230° 230° 4 kt METAR LFQQ 252000Z AUTO 23004KT CAVOK 12/11 Q1014 NOSIG
21:30
V
12 °C 10 km+ 6.000 ft 240° 240° 5 kt METAR LFQQ 251930Z AUTO 24005KT 9999 FEW048 OVC060 12/11 Q1014 NOSIG
21:00
V
12 °C 10 km+ 4.700 ft 280° 280° 5 kt METAR LFQQ 251900Z AUTO 28005KT 9999 BKN047 OVC060 12/10 Q1014 NOSIG
20:30
V
12 °C 10 km+ 6.200 ft 310° 310° 6 kt METAR LFQQ 251830Z AUTO 31006KT 9999 FEW043 BKN062 OVC076 12/10 Q1015 NOSIG
20:00
V
12 °C 10 km+ - 310° 310° 7 kt METAR LFQQ 251800Z AUTO 31007KT CAVOK 12/10 Q1015 NOSIG
19:30
V
13 °C 10 km+ - 290° 290° 9 kt METAR LFQQ 251730Z AUTO 29009KT CAVOK 13/10 Q1015 NOSIG
19:00
V
13 °C 10 km+ - 300° 300° 9 kt METAR LFQQ 251700Z AUTO 30009KT CAVOK 13/10 Q1015 NOSIG
18:30
V
14 °C 10 km+ - 290° 290° 10 kt METAR LFQQ 251630Z AUTO 29010KT CAVOK 14/11 Q1015 NOSIG
18:00
V
14 °C 10 km+ 6.400 ft 270° 270° 7 kt METAR LFQQ 251600Z AUTO 27007KT 9999 FEW024 OVC064 14/11 Q1015 TEMPO 4000 SHRA BKN025TCU
17:30
V
14 °C 10 km+ - 280° 280° 8 kt METAR LFQQ 251530Z AUTO 28008KT CAVOK 14/11 Q1015 TEMPO 4000 SHRA BKN025TCU
17:00
V
15 °C 10 km+ 7.400 ft 290° 290° 8 kt METAR LFQQ 251500Z AUTO 29008KT 9999 FEW026/// OVC074/// //////TCU 15/11 Q1015 TEMPO 4000 SHRA
16:30
V
15 °C 10 km+ - 280° 280° 6 kt METAR LFQQ 251430Z AUTO 28006KT 9999 //////TCU 15/11 Q1015 TEMPO 4000 SHRA
16:00
V
14 °C 10 km+ - 270° 270° 4 kt METAR LFQQ 251400Z AUTO 27004KT 240V310 9999 //////TCU 14/10 Q1016 TEMPO 4000 SHRA
15:30
V
14 °C 10 km+ 5.800 ft 310° 310° 5 kt METAR LFQQ 251330Z AUTO 31005KT 9999 FEW043/// BKN058/// OVC072/// //////TCU 14/11 Q1016 TEMPO 4000 SHRA
15:00
V
13 °C 10 km+ 5.600 ft 030° 030° 5 kt METAR LFQQ 251300Z AUTO 03005KT 9999 FEW029/// SCT048/// OVC056/// //////TCU 13/11 Q1016 TEMPO 4000 SHRA
14:30
I
14 °C 1,6 km 4.000 ft 360° 360° 7 - 22 kt METAR LFQQ 251230Z AUTO 36007G22KT 310V050 9999 1600 +RA FEW022/// SCT032/// BKN040/// //////CB 14/10 Q1016 TEMPO 4000 SHRA
14:00
V
16 °C 10 km+ 4.000 ft 310° 310° 7 kt METAR LFQQ 251200Z AUTO 31007KT 280V360 9999 SCT032/// BKN040/// BKN060/// //////TCU 16/09 Q1016 TEMPO 4000 SHRA
13:30
M
16 °C 10 km+ 2.900 ft 320° 320° 5 kt METAR LFQQ 251130Z AUTO 32005KT 260V020 9999 BKN029/// BKN041/// BKN070/// //////CB 16/10 Q1016 TEMPO 4000 SHRA
13:00
V
15 °C 10 km+ 3.600 ft 340° 340° 7 kt METAR LFQQ 251100Z AUTO 34007KT 9999 SCT030 BKN036 BKN062 15/09 Q1016 TEMPO 4000 SHRA BKN025TCU
12:30
V
16 °C 10 km+ 3.300 ft 010° 010° 4 kt METAR LFQQ 251030Z AUTO 01004KT 330V050 9999 BKN033 BKN041 BKN047 16/09 Q1016 TEMPO 4000 SHRA BKN025TCU
12:00
V
16 °C 10 km+ 3.200 ft 010° 010° 5 kt METAR LFQQ 251000Z AUTO 01005KT 310V060 9999 BKN032 BKN045 BKN056 16/09 Q1017 NOSIG
11:30
V
16 °C 10 km+ - 350° 350° 6 kt METAR LFQQ 250930Z AUTO 35006KT 310V030 9999 FEW029/// //////TCU 16/09 Q1017 BECMG SCT025
11:00
V
15 °C 10 km+ - 350° 350° 5 kt METAR LFQQ 250900Z AUTO 35005KT 320V020 9999 //////CB 15/09 Q1017 BECMG SCT025
10:30
V
15 °C 10 km+ - 310° 310° 6 kt METAR LFQQ 250830Z AUTO 31006KT 270V330 CAVOK 15/10 Q1017 NOSIG
10:00
V
14 °C 10 km+ - 280° 280° 5 kt METAR LFQQ 250800Z AUTO 28005KT CAVOK 14/11 Q1017 NOSIG
09:30
V
13 °C 10 km+ - 300° 300° 4 kt METAR LFQQ 250730Z AUTO 30004KT CAVOK 13/11 Q1017 NOSIG
09:00
V
12 °C 10 km+ - 310° 310° 5 kt METAR LFQQ 250700Z AUTO 31005KT CAVOK 12/11 Q1017 NOSIG
08:30
V
11 °C 10 km+ - 310° 310° 5 kt METAR LFQQ 250630Z AUTO 31005KT CAVOK 11/10 Q1017 NOSIG
08:00
V
10 °C 10 km+ 6.400 ft 320° 320° 6 kt METAR LFQQ 250600Z AUTO 32006KT 9999 FEW034 BKN064 OVC078 10/09 Q1016 NOSIG
07:30
V
10 °C 10 km+ - 340° 340° 6 kt METAR LFQQ 250530Z AUTO 34006KT CAVOK 10/09 Q1016 NOSIG
07:00
V
9 °C 10 km+ - 340° 340° 7 kt METAR LFQQ 250500Z AUTO 34007KT CAVOK 09/08 Q1016 NOSIG
06:30
V
9 °C 10 km+ - 330° 330° 7 kt METAR LFQQ 250430Z AUTO 33007KT CAVOK 09/08 Q1016 NOSIG
06:00
V
10 °C 10 km+ - 340° 340° 6 kt METAR LFQQ 250400Z AUTO 34006KT CAVOK 10/08 Q1016 NOSIG
05:30
V
10 °C 10 km+ - 340° 340° 6 kt METAR LFQQ 250330Z AUTO 34006KT CAVOK 10/08 Q1016 NOSIG
05:00
V
10 °C 10 km+ - 330° 330° 7 kt METAR LFQQ 250300Z AUTO 33007KT CAVOK 10/09 Q1016 NOSIG
04:30
V
10 °C 10 km+ - 350° 350° 6 kt METAR LFQQ 250230Z AUTO 35006KT CAVOK 10/08 Q1016 NOSIG
04:00
V
10 °C 10 km+ - 340° 340° 5 kt METAR LFQQ 250200Z AUTO 34005KT CAVOK 10/08 Q1016 NOSIG
03:30
V
10 °C 10 km+ - 360° 360° 5 kt METAR LFQQ 250130Z AUTO 36005KT CAVOK 10/08 Q1016 NOSIG
03:00
V
10 °C 10 km+ - 350° 350° 6 kt METAR LFQQ 250100Z AUTO 35006KT CAVOK 10/09 Q1016 NOSIG
02:30
V
11 °C 10 km+ - 360° 360° 6 kt METAR LFQQ 250030Z AUTO 36006KT CAVOK 11/09 Q1016 NOSIG
02:00
V
11 °C 10 km+ - 350° 350° 6 kt METAR LFQQ 250000Z AUTO 35006KT CAVOK 11/09 Q1016 NOSIG
01:30
V
11 °C 10 km+ - 350° 350° 5 kt METAR LFQQ 242330Z AUTO 35005KT CAVOK 11/09 Q1016 NOSIG
01:00
V
11 °C 10 km+ - 010° 010° 5 kt METAR LFQQ 242300Z AUTO 01005KT CAVOK 11/09 Q1016 NOSIG
00:30
V
11 °C 10 km+ - 350° 350° 6 kt METAR LFQQ 242230Z AUTO 35006KT CAVOK 11/09 Q1016 NOSIG
00:00
V
11 °C 10 km+ - 350° 350° 6 kt METAR LFQQ 242200Z AUTO 35006KT CAVOK 11/10 Q1016 NOSIG

24. September 2022

Uhrzeit Code Wetter Temp. Sichtweite Wolkendecke Wind METAR/SPECI
23:30
V
12 °C 10 km+ - 350° 350° 7 kt METAR LFQQ 242130Z AUTO 35007KT CAVOK 12/10 Q1016 NOSIG
23:00
V
12 °C 10 km+ - 350° 350° 6 kt METAR LFQQ 242100Z AUTO 35006KT 9999 FEW032 12/10 Q1016 NOSIG
22:30
V
12 °C 10 km+ - 360° 360° 5 kt METAR LFQQ 242030Z AUTO 36005KT CAVOK 12/10 Q1015 NOSIG
22:00
V
13 °C 10 km+ - 350° 350° 6 kt METAR LFQQ 242000Z AUTO 35006KT CAVOK 13/09 Q1015 NOSIG
21:30
V
13 °C 10 km+ - 350° 350° 6 kt METAR LFQQ 241930Z AUTO 35006KT 9999 FEW026 13/09 Q1015 NOSIG
21:00
V
14 °C 10 km+ 3.500 ft 350° 350° 7 kt METAR LFQQ 241900Z AUTO 35007KT 9999 SCT028 BKN035 BKN130 14/10 Q1015 NOSIG
20:30
V
14 °C 10 km+ 5.600 ft 350° 350° 7 kt METAR LFQQ 241830Z AUTO 35007KT 9999 FEW033 BKN056 14/10 Q1014 NOSIG
20:00
V
15 °C 10 km+ - 350° 350° 6 kt METAR LFQQ 241800Z AUTO 35006KT CAVOK 15/10 Q1014 NOSIG
19:30
V
15 °C 10 km+ - 010° 010° 10 kt METAR LFQQ 241730Z AUTO 01010KT 9999 FEW030 15/10 Q1014 NOSIG
19:00
V
16 °C 10 km+ 5.200 ft 010° 010° 10 kt METAR LFQQ 241700Z AUTO 01010KT 9999 FEW029 BKN052 BKN120 16/11 Q1014 BECMG RA
Ältere Daten

Wir und Dritte verfolgen dein Internetverhalten auf unserer Website mit Cookies. Wenn du fortfährst, gehen wir davon aus, dass du mit unserer Cookie-Richtlinie einverstanden bist. Mehr erfahren